sensor_id;sensor_type;location;lat;lon;timestamp;P1;durP1;ratioP1;P2;durP2;ratioP2
5263;SDS011;2654;47.958;13.614;2022-08-19T00:01:56;12.40;;;8.93;;
5263;SDS011;2654;47.958;13.614;2022-08-19T00:04:25;17.70;;;8.20;;
5263;SDS011;2654;47.958;13.614;2022-08-19T00:06:54;10.97;;;8.40;;
5263;SDS011;2654;47.958;13.614;2022-08-19T00:09:22;14.40;;;8.30;;
5263;SDS011;2654;47.958;13.614;2022-08-19T00:11:51;10.70;;;7.80;;
5263;SDS011;2654;47.958;13.614;2022-08-19T00:14:22;10.33;;;8.20;;
5263;SDS011;2654;47.958;13.614;2022-08-19T00:16:51;10.60;;;8.73;;
5263;SDS011;2654;47.958;13.614;2022-08-19T00:19:19;14.83;;;8.07;;
5263;SDS011;2654;47.958;13.614;2022-08-19T00:21:48;10.60;;;8.27;;
5263;SDS011;2654;47.958;13.614;2022-08-19T00:24:15;10.37;;;8.27;;
5263;SDS011;2654;47.958;13.614;2022-08-19T00:26:43;12.63;;;8.90;;
5263;SDS011;2654;47.958;13.614;2022-08-19T00:29:12;11.13;;;7.90;;
5263;SDS011;2654;47.958;13.614;2022-08-19T00:31:43;9.87;;;7.70;;
5263;SDS011;2654;47.958;13.614;2022-08-19T00:34:11;9.33;;;7.43;;
5263;SDS011;2654;47.958;13.614;2022-08-19T00:36:39;9.30;;;7.60;;
5263;SDS011;2654;47.958;13.614;2022-08-19T00:39:08;10.90;;;6.80;;
5263;SDS011;2654;47.958;13.614;2022-08-19T00:41:36;11.90;;;7.73;;
5263;SDS011;2654;47.958;13.614;2022-08-19T00:44:07;8.37;;;7.20;;
5263;SDS011;2654;47.958;13.614;2022-08-19T00:46:38;10.50;;;7.20;;
5263;SDS011;2654;47.958;13.614;2022-08-19T00:49:10;10.60;;;6.97;;
5263;SDS011;2654;47.958;13.614;2022-08-19T00:51:41;10.50;;;7.20;;
5263;SDS011;2654;47.958;13.614;2022-08-19T00:54:11;13.80;;;7.27;;
5263;SDS011;2654;47.958;13.614;2022-08-19T00:56:39;10.40;;;7.40;;
5263;SDS011;2654;47.958;13.614;2022-08-19T00:59:07;12.73;;;7.10;;
5263;SDS011;2654;47.958;13.614;2022-08-19T01:01:36;14.90;;;7.93;;
5263;SDS011;2654;47.958;13.614;2022-08-19T01:04:04;11.30;;;7.20;;
5263;SDS011;2654;47.958;13.614;2022-08-19T01:06:34;9.43;;;7.83;;
5263;SDS011;2654;47.958;13.614;2022-08-19T01:09:03;9.03;;;7.23;;
5263;SDS011;2654;47.958;13.614;2022-08-19T01:11:32;10.83;;;8.60;;
5263;SDS011;2654;47.958;13.614;2022-08-19T01:14:01;8.10;;;7.30;;
5263;SDS011;2654;47.958;13.614;2022-08-19T01:16:30;11.93;;;7.70;;
5263;SDS011;2654;47.958;13.614;2022-08-19T01:19:00;10.43;;;8.10;;
5263;SDS011;2654;47.958;13.614;2022-08-19T01:21:30;12.90;;;8.87;;
5263;SDS011;2654;47.958;13.614;2022-08-19T01:24:02;12.67;;;9.23;;
5263;SDS011;2654;47.958;13.614;2022-08-19T01:26:30;9.80;;;8.53;;
5263;SDS011;2654;47.958;13.614;2022-08-19T01:29:04;14.53;;;8.50;;
5263;SDS011;2654;47.958;13.614;2022-08-19T01:31:34;10.53;;;8.80;;
5263;SDS011;2654;47.958;13.614;2022-08-19T01:34:02;14.07;;;9.50;;
5263;SDS011;2654;47.958;13.614;2022-08-19T01:36:31;10.10;;;8.33;;
5263;SDS011;2654;47.958;13.614;2022-08-19T01:39:05;12.53;;;9.03;;
5263;SDS011;2654;47.958;13.614;2022-08-19T01:41:34;12.00;;;9.10;;
5263;SDS011;2654;47.958;13.614;2022-08-19T01:44:02;11.40;;;9.30;;
5263;SDS011;2654;47.958;13.614;2022-08-19T01:46:31;10.70;;;9.00;;
5263;SDS011;2654;47.958;13.614;2022-08-19T01:48:59;12.60;;;10.27;;
5263;SDS011;2654;47.958;13.614;2022-08-19T01:51:26;10.90;;;8.67;;
5263;SDS011;2654;47.958;13.614;2022-08-19T01:53:53;18.43;;;10.27;;
5263;SDS011;2654;47.958;13.614;2022-08-19T01:56:22;12.23;;;9.80;;
5263;SDS011;2654;47.958;13.614;2022-08-19T01:58:51;14.20;;;9.43;;
5263;SDS011;2654;47.958;13.614;2022-08-19T02:01:22;12.43;;;10.37;;
5263;SDS011;2654;47.958;13.614;2022-08-19T02:03:49;12.10;;;9.80;;
5263;SDS011;2654;47.958;13.614;2022-08-19T02:06:19;13.10;;;9.97;;
5263;SDS011;2654;47.958;13.614;2022-08-19T02:08:46;14.33;;;10.13;;
5263;SDS011;2654;47.958;13.614;2022-08-19T02:11:19;16.20;;;10.93;;
5263;SDS011;2654;47.958;13.614;2022-08-19T02:13:48;16.30;;;10.80;;
5263;SDS011;2654;47.958;13.614;2022-08-19T02:16:16;16.63;;;11.33;;
5263;SDS011;2654;47.958;13.614;2022-08-19T02:18:45;15.03;;;11.43;;
5263;SDS011;2654;47.958;13.614;2022-08-19T02:21:14;17.93;;;12.90;;
5263;SDS011;2654;47.958;13.614;2022-08-19T02:23:41;19.23;;;12.53;;
5263;SDS011;2654;47.958;13.614;2022-08-19T02:26:09;17.97;;;12.90;;
5263;SDS011;2654;47.958;13.614;2022-08-19T02:28:37;18.70;;;13.33;;
5263;SDS011;2654;47.958;13.614;2022-08-19T02:31:09;15.50;;;12.30;;
5263;SDS011;2654;47.958;13.614;2022-08-19T02:33:37;17.40;;;12.67;;
5263;SDS011;2654;47.958;13.614;2022-08-19T02:36:05;16.73;;;12.27;;
5263;SDS011;2654;47.958;13.614;2022-08-19T02:38:34;16.83;;;12.43;;
5263;SDS011;2654;47.958;13.614;2022-08-19T02:41:03;20.27;;;12.10;;
5263;SDS011;2654;47.958;13.614;2022-08-19T02:43:43;16.50;;;12.37;;
5263;SDS011;2654;47.958;13.614;2022-08-19T02:46:13;15.60;;;11.37;;
5263;SDS011;2654;47.958;13.614;2022-08-19T02:48:45;16.27;;;12.17;;
5263;SDS011;2654;47.958;13.614;2022-08-19T02:51:17;16.80;;;12.67;;
5263;SDS011;2654;47.958;13.614;2022-08-19T02:53:46;16.83;;;12.60;;
5263;SDS011;2654;47.958;13.614;2022-08-19T02:56:13;20.70;;;13.70;;
5263;SDS011;2654;47.958;13.614;2022-08-19T02:58:41;18.67;;;13.53;;
5263;SDS011;2654;47.958;13.614;2022-08-19T03:01:10;19.80;;;13.87;;
5263;SDS011;2654;47.958;13.614;2022-08-19T03:03:39;17.27;;;13.43;;
5263;SDS011;2654;47.958;13.614;2022-08-19T03:06:07;20.80;;;15.30;;
5263;SDS011;2654;47.958;13.614;2022-08-19T03:08:38;19.90;;;15.20;;
5263;SDS011;2654;47.958;13.614;2022-08-19T03:11:06;20.23;;;15.10;;
5263;SDS011;2654;47.958;13.614;2022-08-19T03:13:40;20.27;;;14.67;;
5263;SDS011;2654;47.958;13.614;2022-08-19T03:16:08;25.30;;;15.63;;
5263;SDS011;2654;47.958;13.614;2022-08-19T03:18:36;23.67;;;15.17;;
5263;SDS011;2654;47.958;13.614;2022-08-19T03:21:05;17.40;;;13.40;;
5263;SDS011;2654;47.958;13.614;2022-08-19T03:23:33;22.30;;;14.93;;
5263;SDS011;2654;47.958;13.614;2022-08-19T03:26:03;23.90;;;14.30;;
5263;SDS011;2654;47.958;13.614;2022-08-19T03:28:31;21.43;;;16.50;;
5263;SDS011;2654;47.958;13.614;2022-08-19T03:31:00;21.60;;;14.37;;
5263;SDS011;2654;47.958;13.614;2022-08-19T03:33:29;23.20;;;16.83;;
5263;SDS011;2654;47.958;13.614;2022-08-19T03:36:04;23.00;;;17.17;;
5263;SDS011;2654;47.958;13.614;2022-08-19T03:38:34;23.30;;;17.10;;
5263;SDS011;2654;47.958;13.614;2022-08-19T03:41:03;24.50;;;16.70;;
5263;SDS011;2654;47.958;13.614;2022-08-19T03:43:33;23.00;;;15.70;;
5263;SDS011;2654;47.958;13.614;2022-08-19T03:46:02;21.93;;;15.83;;
5263;SDS011;2654;47.958;13.614;2022-08-19T03:48:31;26.47;;;15.90;;
5263;SDS011;2654;47.958;13.614;2022-08-19T03:51:00;22.63;;;17.00;;
5263;SDS011;2654;47.958;13.614;2022-08-19T03:53:29;22.83;;;16.70;;
5263;SDS011;2654;47.958;13.614;2022-08-19T03:55:58;20.23;;;15.70;;
5263;SDS011;2654;47.958;13.614;2022-08-19T03:58:27;22.50;;;17.40;;
5263;SDS011;2654;47.958;13.614;2022-08-19T04:00:55;22.10;;;16.97;;
5263;SDS011;2654;47.958;13.614;2022-08-19T04:03:23;27.87;;;17.87;;
5263;SDS011;2654;47.958;13.614;2022-08-19T04:05:52;28.03;;;18.40;;
5263;SDS011;2654;47.958;13.614;2022-08-19T04:08:19;25.17;;;17.60;;
5263;SDS011;2654;47.958;13.614;2022-08-19T04:10:49;26.10;;;18.77;;
5263;SDS011;2654;47.958;13.614;2022-08-19T04:13:17;30.20;;;17.03;;
5263;SDS011;2654;47.958;13.614;2022-08-19T04:15:44;20.53;;;15.83;;
5263;SDS011;2654;47.958;13.614;2022-08-19T04:18:12;27.87;;;16.53;;
5263;SDS011;2654;47.958;13.614;2022-08-19T04:20:41;22.33;;;16.73;;
5263;SDS011;2654;47.958;13.614;2022-08-19T04:23:10;22.03;;;16.60;;
5263;SDS011;2654;47.958;13.614;2022-08-19T04:25:39;19.83;;;15.50;;
5263;SDS011;2654;47.958;13.614;2022-08-19T04:28:10;24.10;;;15.37;;
5263;SDS011;2654;47.958;13.614;2022-08-19T04:30:39;23.77;;;16.27;;
5263;SDS011;2654;47.958;13.614;2022-08-19T04:33:08;23.13;;;14.77;;
5263;SDS011;2654;47.958;13.614;2022-08-19T04:35:37;21.63;;;15.13;;
5263;SDS011;2654;47.958;13.614;2022-08-19T04:38:06;28.10;;;17.80;;
5263;SDS011;2654;47.958;13.614;2022-08-19T04:40:33;26.30;;;18.17;;
5263;SDS011;2654;47.958;13.614;2022-08-19T04:43:24;27.43;;;18.33;;
5263;SDS011;2654;47.958;13.614;2022-08-19T04:45:52;35.23;;;18.70;;
5263;SDS011;2654;47.958;13.614;2022-08-19T04:48:20;26.23;;;16.90;;
5263;SDS011;2654;47.958;13.614;2022-08-19T04:50:51;26.07;;;17.30;;
5263;SDS011;2654;47.958;13.614;2022-08-19T04:53:23;25.07;;;18.07;;
5263;SDS011;2654;47.958;13.614;2022-08-19T04:55:53;29.00;;;17.30;;
5263;SDS011;2654;47.958;13.614;2022-08-19T04:58:21;26.63;;;16.53;;
5263;SDS011;2654;47.958;13.614;2022-08-19T05:00:51;26.17;;;18.43;;
5263;SDS011;2654;47.958;13.614;2022-08-19T05:03:18;29.00;;;17.70;;
5263;SDS011;2654;47.958;13.614;2022-08-19T05:05:47;28.27;;;18.10;;
5263;SDS011;2654;47.958;13.614;2022-08-19T05:08:16;26.23;;;19.53;;
5263;SDS011;2654;47.958;13.614;2022-08-19T05:10:46;28.00;;;19.33;;
5263;SDS011;2654;47.958;13.614;2022-08-19T05:13:15;33.87;;;20.63;;
5263;SDS011;2654;47.958;13.614;2022-08-19T05:15:43;34.70;;;22.23;;
5263;SDS011;2654;47.958;13.614;2022-08-19T05:18:22;28.00;;;18.93;;
5263;SDS011;2654;47.958;13.614;2022-08-19T05:21:07;30.90;;;20.60;;
5263;SDS011;2654;47.958;13.614;2022-08-19T05:23:52;32.80;;;20.77;;
5263;SDS011;2654;47.958;13.614;2022-08-19T05:26:19;32.73;;;21.40;;
5263;SDS011;2654;47.958;13.614;2022-08-19T05:28:46;30.30;;;19.63;;
5263;SDS011;2654;47.958;13.614;2022-08-19T05:31:14;33.53;;;20.60;;
5263;SDS011;2654;47.958;13.614;2022-08-19T05:33:43;29.20;;;20.60;;
5263;SDS011;2654;47.958;13.614;2022-08-19T05:36:10;26.87;;;20.67;;
5263;SDS011;2654;47.958;13.614;2022-08-19T05:38:38;29.97;;;20.43;;
5263;SDS011;2654;47.958;13.614;2022-08-19T05:41:07;34.27;;;22.40;;
5263;SDS011;2654;47.958;13.614;2022-08-19T05:43:35;34.10;;;22.17;;
5263;SDS011;2654;47.958;13.614;2022-08-19T05:46:03;34.30;;;22.53;;
5263;SDS011;2654;47.958;13.614;2022-08-19T05:48:30;34.70;;;22.10;;
5263;SDS011;2654;47.958;13.614;2022-08-19T05:51:02;29.87;;;21.10;;
5263;SDS011;2654;47.958;13.614;2022-08-19T05:53:31;29.67;;;21.80;;
5263;SDS011;2654;47.958;13.614;2022-08-19T05:56:03;32.33;;;20.83;;
5263;SDS011;2654;47.958;13.614;2022-08-19T05:58:30;27.03;;;20.00;;
5263;SDS011;2654;47.958;13.614;2022-08-19T06:00:58;30.77;;;22.07;;
5263;SDS011;2654;47.958;13.614;2022-08-19T06:03:29;28.77;;;19.97;;
5263;SDS011;2654;47.958;13.614;2022-08-19T06:05:57;25.07;;;19.30;;
5263;SDS011;2654;47.958;13.614;2022-08-19T06:08:27;27.40;;;20.17;;
5263;SDS011;2654;47.958;13.614;2022-08-19T06:10:55;22.83;;;16.50;;
5263;SDS011;2654;47.958;13.614;2022-08-19T06:13:23;27.00;;;19.77;;
5263;SDS011;2654;47.958;13.614;2022-08-19T06:15:50;28.70;;;18.47;;
5263;SDS011;2654;47.958;13.614;2022-08-19T06:18:18;26.37;;;18.80;;
5263;SDS011;2654;47.958;13.614;2022-08-19T06:20:45;26.40;;;19.57;;
5263;SDS011;2654;47.958;13.614;2022-08-19T06:23:15;24.00;;;17.87;;
5263;SDS011;2654;47.958;13.614;2022-08-19T06:25:43;25.07;;;18.53;;
5263;SDS011;2654;47.958;13.614;2022-08-19T06:28:11;25.10;;;18.13;;
5263;SDS011;2654;47.958;13.614;2022-08-19T06:30:38;27.10;;;19.00;;
5263;SDS011;2654;47.958;13.614;2022-08-19T06:33:06;26.13;;;19.03;;
5263;SDS011;2654;47.958;13.614;2022-08-19T06:35:38;26.77;;;18.57;;
5263;SDS011;2654;47.958;13.614;2022-08-19T06:38:06;25.40;;;17.77;;
5263;SDS011;2654;47.958;13.614;2022-08-19T06:40:36;31.70;;;18.33;;
5263;SDS011;2654;47.958;13.614;2022-08-19T06:43:03;22.13;;;16.57;;
5263;SDS011;2654;47.958;13.614;2022-08-19T06:45:30;27.17;;;18.90;;
5263;SDS011;2654;47.958;13.614;2022-08-19T06:47:58;23.07;;;17.13;;
5263;SDS011;2654;47.958;13.614;2022-08-19T06:50:25;25.70;;;18.90;;
5263;SDS011;2654;47.958;13.614;2022-08-19T06:52:53;27.10;;;17.90;;
5263;SDS011;2654;47.958;13.614;2022-08-19T06:55:20;27.53;;;17.90;;
5263;SDS011;2654;47.958;13.614;2022-08-19T06:57:49;25.80;;;17.83;;
5263;SDS011;2654;47.958;13.614;2022-08-19T07:00:18;25.23;;;17.63;;
5263;SDS011;2654;47.958;13.614;2022-08-19T07:02:45;23.13;;;16.70;;
5263;SDS011;2654;47.958;13.614;2022-08-19T07:05:14;32.93;;;18.60;;
5263;SDS011;2654;47.958;13.614;2022-08-19T07:07:42;25.97;;;17.50;;
5263;SDS011;2654;47.958;13.614;2022-08-19T07:10:09;29.50;;;18.40;;
5263;SDS011;2654;47.958;13.614;2022-08-19T07:12:37;25.37;;;17.47;;
5263;SDS011;2654;47.958;13.614;2022-08-19T07:15:07;28.47;;;19.70;;
5263;SDS011;2654;47.958;13.614;2022-08-19T07:17:36;30.03;;;19.27;;
5263;SDS011;2654;47.958;13.614;2022-08-19T07:20:05;37.77;;;19.40;;
5263;SDS011;2654;47.958;13.614;2022-08-19T07:22:33;28.40;;;19.50;;
5263;SDS011;2654;47.958;13.614;2022-08-19T07:25:01;27.17;;;18.80;;
5263;SDS011;2654;47.958;13.614;2022-08-19T07:27:29;27.77;;;20.83;;
5263;SDS011;2654;47.958;13.614;2022-08-19T07:29:56;27.80;;;19.97;;
5263;SDS011;2654;47.958;13.614;2022-08-19T07:32:25;35.30;;;21.57;;
5263;SDS011;2654;47.958;13.614;2022-08-19T07:34:53;42.63;;;21.27;;
5263;SDS011;2654;47.958;13.614;2022-08-19T07:37:20;32.07;;;22.57;;
5263;SDS011;2654;47.958;13.614;2022-08-19T07:39:48;36.07;;;26.57;;
5263;SDS011;2654;47.958;13.614;2022-08-19T07:42:15;36.70;;;26.03;;
5263;SDS011;2654;47.958;13.614;2022-08-19T07:44:43;33.97;;;22.83;;
5263;SDS011;2654;47.958;13.614;2022-08-19T07:47:10;29.53;;;22.50;;
5263;SDS011;2654;47.958;13.614;2022-08-19T07:49:41;34.67;;;24.77;;
5263;SDS011;2654;47.958;13.614;2022-08-19T07:52:09;35.23;;;23.97;;
5263;SDS011;2654;47.958;13.614;2022-08-19T07:54:38;35.23;;;21.10;;
5263;SDS011;2654;47.958;13.614;2022-08-19T07:57:07;32.77;;;22.77;;
5263;SDS011;2654;47.958;13.614;2022-08-19T07:59:35;26.90;;;20.47;;
5263;SDS011;2654;47.958;13.614;2022-08-19T08:02:02;28.27;;;21.13;;
5263;SDS011;2654;47.958;13.614;2022-08-19T08:04:30;31.60;;;22.50;;
5263;SDS011;2654;47.958;13.614;2022-08-19T08:07:17;33.27;;;22.70;;
5263;SDS011;2654;47.958;13.614;2022-08-19T08:10:03;27.50;;;20.13;;
5263;SDS011;2654;47.958;13.614;2022-08-19T08:12:32;31.80;;;23.07;;
5263;SDS011;2654;47.958;13.614;2022-08-19T08:15:03;30.60;;;22.60;;
5263;SDS011;2654;47.958;13.614;2022-08-19T08:17:33;31.27;;;21.50;;
5263;SDS011;2654;47.958;13.614;2022-08-19T08:20:02;33.67;;;22.00;;
5263;SDS011;2654;47.958;13.614;2022-08-19T08:22:33;30.80;;;21.90;;
5263;SDS011;2654;47.958;13.614;2022-08-19T08:25:32;32.10;;;22.07;;
5263;SDS011;2654;47.958;13.614;2022-08-19T08:28:02;28.33;;;19.47;;
5263;SDS011;2654;47.958;13.614;2022-08-19T08:30:30;32.23;;;19.97;;
5263;SDS011;2654;47.958;13.614;2022-08-19T08:33:00;27.87;;;20.47;;
5263;SDS011;2654;47.958;13.614;2022-08-19T08:35:28;28.83;;;21.30;;
5263;SDS011;2654;47.958;13.614;2022-08-19T08:37:57;27.07;;;19.90;;
5263;SDS011;2654;47.958;13.614;2022-08-19T08:40:27;32.50;;;21.97;;
5263;SDS011;2654;47.958;13.614;2022-08-19T08:42:57;26.67;;;18.63;;
5263;SDS011;2654;47.958;13.614;2022-08-19T08:45:34;29.83;;;17.50;;
5263;SDS011;2654;47.958;13.614;2022-08-19T08:48:08;23.30;;;16.77;;
5263;SDS011;2654;47.958;13.614;2022-08-19T08:50:42;23.40;;;17.20;;
5263;SDS011;2654;47.958;13.614;2022-08-19T08:53:14;25.20;;;17.33;;
5263;SDS011;2654;47.958;13.614;2022-08-19T08:55:46;23.97;;;17.07;;
5263;SDS011;2654;47.958;13.614;2022-08-19T08:58:17;29.63;;;18.57;;
5263;SDS011;2654;47.958;13.614;2022-08-19T09:00:50;25.10;;;17.70;;
5263;SDS011;2654;47.958;13.614;2022-08-19T09:03:18;24.03;;;18.00;;
5263;SDS011;2654;47.958;13.614;2022-08-19T09:05:50;28.50;;;19.70;;
5263;SDS011;2654;47.958;13.614;2022-08-19T09:08:30;36.73;;;19.23;;
5263;SDS011;2654;47.958;13.614;2022-08-19T09:11:06;25.43;;;19.00;;
5263;SDS011;2654;47.958;13.614;2022-08-19T09:13:38;32.50;;;21.20;;
5263;SDS011;2654;47.958;13.614;2022-08-19T09:16:16;25.07;;;18.53;;
5263;SDS011;2654;47.958;13.614;2022-08-19T09:18:47;25.63;;;18.87;;
5263;SDS011;2654;47.958;13.614;2022-08-19T09:21:18;25.20;;;19.03;;
5263;SDS011;2654;47.958;13.614;2022-08-19T09:23:49;26.83;;;19.30;;
5263;SDS011;2654;47.958;13.614;2022-08-19T09:26:17;23.77;;;18.70;;
5263;SDS011;2654;47.958;13.614;2022-08-19T09:28:46;30.00;;;20.00;;
5263;SDS011;2654;47.958;13.614;2022-08-19T09:31:16;28.17;;;20.63;;
5263;SDS011;2654;47.958;13.614;2022-08-19T09:33:45;25.93;;;19.37;;
5263;SDS011;2654;47.958;13.614;2022-08-19T09:36:14;28.13;;;18.97;;
5263;SDS011;2654;47.958;13.614;2022-08-19T09:38:43;30.90;;;21.23;;
5263;SDS011;2654;47.958;13.614;2022-08-19T09:41:13;31.67;;;20.93;;
5263;SDS011;2654;47.958;13.614;2022-08-19T09:43:43;28.93;;;22.07;;
5263;SDS011;2654;47.958;13.614;2022-08-19T09:46:11;29.43;;;21.77;;
5263;SDS011;2654;47.958;13.614;2022-08-19T09:48:41;28.50;;;21.00;;
5263;SDS011;2654;47.958;13.614;2022-08-19T09:51:10;28.27;;;21.10;;
5263;SDS011;2654;47.958;13.614;2022-08-19T09:53:41;34.60;;;25.00;;
5263;SDS011;2654;47.958;13.614;2022-08-19T09:56:09;34.00;;;22.57;;
5263;SDS011;2654;47.958;13.614;2022-08-19T09:58:39;34.93;;;23.13;;
5263;SDS011;2654;47.958;13.614;2022-08-19T10:01:07;32.40;;;23.40;;
5263;SDS011;2654;47.958;13.614;2022-08-19T10:03:35;32.20;;;23.73;;
5263;SDS011;2654;47.958;13.614;2022-08-19T10:06:04;33.20;;;24.50;;
5263;SDS011;2654;47.958;13.614;2022-08-19T10:08:32;32.90;;;22.73;;
5263;SDS011;2654;47.958;13.614;2022-08-19T10:11:02;32.33;;;23.37;;
5263;SDS011;2654;47.958;13.614;2022-08-19T10:13:31;31.00;;;21.80;;
5263;SDS011;2654;47.958;13.614;2022-08-19T10:16:04;36.47;;;22.53;;
5263;SDS011;2654;47.958;13.614;2022-08-19T10:18:34;34.80;;;24.13;;
5263;SDS011;2654;47.958;13.614;2022-08-19T10:21:04;34.13;;;23.30;;
5263;SDS011;2654;47.958;13.614;2022-08-19T10:23:35;38.50;;;23.27;;
5263;SDS011;2654;47.958;13.614;2022-08-19T10:26:03;28.60;;;22.77;;
5263;SDS011;2654;47.958;13.614;2022-08-19T10:28:32;28.10;;;23.33;;
5263;SDS011;2654;47.958;13.614;2022-08-19T10:31:07;28.13;;;21.70;;
5263;SDS011;2654;47.958;13.614;2022-08-19T10:33:37;30.00;;;22.00;;
5263;SDS011;2654;47.958;13.614;2022-08-19T10:36:06;37.23;;;22.30;;
5263;SDS011;2654;47.958;13.614;2022-08-19T10:38:35;31.07;;;23.10;;
5263;SDS011;2654;47.958;13.614;2022-08-19T10:41:07;33.73;;;24.20;;
5263;SDS011;2654;47.958;13.614;2022-08-19T10:43:36;30.03;;;22.90;;
5263;SDS011;2654;47.958;13.614;2022-08-19T10:46:06;28.07;;;21.57;;
5263;SDS011;2654;47.958;13.614;2022-08-19T10:48:35;30.87;;;21.27;;
5263;SDS011;2654;47.958;13.614;2022-08-19T10:51:03;35.50;;;23.37;;
5263;SDS011;2654;47.958;13.614;2022-08-19T10:53:48;31.37;;;22.57;;
5263;SDS011;2654;47.958;13.614;2022-08-19T10:56:16;29.27;;;23.13;;
5263;SDS011;2654;47.958;13.614;2022-08-19T10:59:00;32.47;;;23.90;;
5263;SDS011;2654;47.958;13.614;2022-08-19T11:01:30;31.40;;;24.37;;
5263;SDS011;2654;47.958;13.614;2022-08-19T11:03:58;34.17;;;24.93;;
5263;SDS011;2654;47.958;13.614;2022-08-19T11:06:26;31.13;;;24.23;;
5263;SDS011;2654;47.958;13.614;2022-08-19T11:08:55;29.47;;;22.70;;
5263;SDS011;2654;47.958;13.614;2022-08-19T11:11:23;30.57;;;24.53;;
5263;SDS011;2654;47.958;13.614;2022-08-19T11:13:51;29.50;;;23.90;;
5263;SDS011;2654;47.958;13.614;2022-08-19T11:16:19;28.80;;;22.87;;
5263;SDS011;2654;47.958;13.614;2022-08-19T11:18:52;33.67;;;23.37;;
5263;SDS011;2654;47.958;13.614;2022-08-19T11:21:23;35.27;;;24.40;;
5263;SDS011;2654;47.958;13.614;2022-08-19T11:23:53;28.60;;;23.23;;
5263;SDS011;2654;47.958;13.614;2022-08-19T11:26:22;30.03;;;23.53;;
5263;SDS011;2654;47.958;13.614;2022-08-19T11:28:52;31.90;;;25.20;;
5263;SDS011;2654;47.958;13.614;2022-08-19T11:31:20;32.00;;;23.87;;
5263;SDS011;2654;47.958;13.614;2022-08-19T11:33:50;28.60;;;23.30;;
5263;SDS011;2654;47.958;13.614;2022-08-19T11:36:19;34.87;;;24.50;;
5263;SDS011;2654;47.958;13.614;2022-08-19T11:38:47;31.57;;;25.40;;
5263;SDS011;2654;47.958;13.614;2022-08-19T11:41:16;33.33;;;26.73;;
5263;SDS011;2654;47.958;13.614;2022-08-19T11:43:45;35.47;;;22.50;;
5263;SDS011;2654;47.958;13.614;2022-08-19T11:46:13;28.23;;;22.77;;
5263;SDS011;2654;47.958;13.614;2022-08-19T11:48:42;31.63;;;22.83;;
5263;SDS011;2654;47.958;13.614;2022-08-19T11:51:12;35.47;;;23.17;;
5263;SDS011;2654;47.958;13.614;2022-08-19T11:53:41;25.20;;;20.90;;
5263;SDS011;2654;47.958;13.614;2022-08-19T11:56:09;28.93;;;21.23;;
5263;SDS011;2654;47.958;13.614;2022-08-19T11:58:37;27.73;;;21.07;;
5263;SDS011;2654;47.958;13.614;2022-08-19T12:01:07;31.10;;;23.47;;
5263;SDS011;2654;47.958;13.614;2022-08-19T12:03:36;26.97;;;21.37;;
5263;SDS011;2654;47.958;13.614;2022-08-19T12:06:04;29.83;;;22.67;;
5263;SDS011;2654;47.958;13.614;2022-08-19T12:08:34;34.70;;;26.80;;
5263;SDS011;2654;47.958;13.614;2022-08-19T12:11:01;33.83;;;27.77;;
5263;SDS011;2654;47.958;13.614;2022-08-19T12:13:29;34.20;;;27.93;;
5263;SDS011;2654;47.958;13.614;2022-08-19T12:15:57;39.13;;;29.00;;
5263;SDS011;2654;47.958;13.614;2022-08-19T12:18:24;36.50;;;28.97;;
5263;SDS011;2654;47.958;13.614;2022-08-19T12:20:53;34.73;;;26.60;;
5263;SDS011;2654;47.958;13.614;2022-08-19T12:23:21;32.30;;;23.53;;
5263;SDS011;2654;47.958;13.614;2022-08-19T12:25:50;26.50;;;21.27;;
5263;SDS011;2654;47.958;13.614;2022-08-19T12:28:20;30.00;;;22.27;;
5263;SDS011;2654;47.958;13.614;2022-08-19T12:30:48;30.63;;;23.07;;
5263;SDS011;2654;47.958;13.614;2022-08-19T12:33:16;26.10;;;22.50;;
5263;SDS011;2654;47.958;13.614;2022-08-19T12:35:45;27.53;;;20.90;;
5263;SDS011;2654;47.958;13.614;2022-08-19T12:38:12;25.40;;;20.03;;
5263;SDS011;2654;47.958;13.614;2022-08-19T12:40:41;23.60;;;18.70;;
5263;SDS011;2654;47.958;13.614;2022-08-19T12:43:13;26.40;;;19.33;;
5263;SDS011;2654;47.958;13.614;2022-08-19T12:45:41;21.70;;;17.33;;
5263;SDS011;2654;47.958;13.614;2022-08-19T12:48:10;23.53;;;17.97;;
5263;SDS011;2654;47.958;13.614;2022-08-19T12:50:38;26.67;;;20.27;;
5263;SDS011;2654;47.958;13.614;2022-08-19T12:53:06;26.60;;;20.23;;
5263;SDS011;2654;47.958;13.614;2022-08-19T12:55:34;21.03;;;17.00;;
5263;SDS011;2654;47.958;13.614;2022-08-19T12:58:01;25.93;;;19.80;;
5263;SDS011;2654;47.958;13.614;2022-08-19T13:00:30;24.20;;;17.97;;
5263;SDS011;2654;47.958;13.614;2022-08-19T13:02:58;32.97;;;22.90;;
5263;SDS011;2654;47.958;13.614;2022-08-19T13:05:27;25.43;;;19.97;;
5263;SDS011;2654;47.958;13.614;2022-08-19T13:07:56;30.90;;;20.67;;
5263;SDS011;2654;47.958;13.614;2022-08-19T13:10:26;26.03;;;20.30;;
5263;SDS011;2654;47.958;13.614;2022-08-19T13:12:56;22.90;;;18.23;;
5263;SDS011;2654;47.958;13.614;2022-08-19T13:15:26;27.87;;;19.70;;
5263;SDS011;2654;47.958;13.614;2022-08-19T13:17:57;22.23;;;19.10;;
5263;SDS011;2654;47.958;13.614;2022-08-19T13:20:25;19.67;;;16.07;;
5263;SDS011;2654;47.958;13.614;2022-08-19T13:22:52;19.23;;;16.77;;
5263;SDS011;2654;47.958;13.614;2022-08-19T13:25:22;22.30;;;17.53;;
5263;SDS011;2654;47.958;13.614;2022-08-19T13:27:50;25.30;;;19.40;;
5263;SDS011;2654;47.958;13.614;2022-08-19T13:30:18;30.90;;;17.73;;
5263;SDS011;2654;47.958;13.614;2022-08-19T13:33:05;27.30;;;16.57;;
5263;SDS011;2654;47.958;13.614;2022-08-19T13:35:41;24.80;;;17.13;;
5263;SDS011;2654;47.958;13.614;2022-08-19T13:38:12;19.40;;;15.50;;
5263;SDS011;2654;47.958;13.614;2022-08-19T13:40:41;20.50;;;15.87;;
5263;SDS011;2654;47.958;13.614;2022-08-19T13:43:09;17.47;;;14.50;;
5263;SDS011;2654;47.958;13.614;2022-08-19T13:45:37;16.20;;;13.90;;
5263;SDS011;2654;47.958;13.614;2022-08-19T13:48:06;18.60;;;13.53;;
5263;SDS011;2654;47.958;13.614;2022-08-19T13:50:34;17.63;;;13.80;;
5263;SDS011;2654;47.958;13.614;2022-08-19T13:53:06;23.03;;;13.40;;
5263;SDS011;2654;47.958;13.614;2022-08-19T13:55:34;14.03;;;12.53;;
5263;SDS011;2654;47.958;13.614;2022-08-19T13:58:03;19.23;;;12.27;;
5263;SDS011;2654;47.958;13.614;2022-08-19T14:00:31;17.40;;;14.00;;
5263;SDS011;2654;47.958;13.614;2022-08-19T14:03:01;16.17;;;13.90;;
5263;SDS011;2654;47.958;13.614;2022-08-19T14:05:31;16.37;;;13.70;;
5263;SDS011;2654;47.958;13.614;2022-08-19T14:07:59;25.07;;;17.93;;
5263;SDS011;2654;47.958;13.614;2022-08-19T14:10:27;22.00;;;16.77;;
5263;SDS011;2654;47.958;13.614;2022-08-19T14:12:56;25.80;;;18.70;;
5263;SDS011;2654;47.958;13.614;2022-08-19T14:15:25;26.63;;;17.67;;
5263;SDS011;2654;47.958;13.614;2022-08-19T14:17:53;22.83;;;17.33;;
5263;SDS011;2654;47.958;13.614;2022-08-19T14:20:21;25.00;;;17.80;;
5263;SDS011;2654;47.958;13.614;2022-08-19T14:22:50;24.73;;;17.03;;
5263;SDS011;2654;47.958;13.614;2022-08-19T14:25:18;21.73;;;16.77;;
5263;SDS011;2654;47.958;13.614;2022-08-19T14:27:47;27.17;;;19.30;;
5263;SDS011;2654;47.958;13.614;2022-08-19T14:30:16;27.20;;;19.77;;
5263;SDS011;2654;47.958;13.614;2022-08-19T14:32:47;19.47;;;14.30;;
5263;SDS011;2654;47.958;13.614;2022-08-19T14:35:14;20.57;;;13.60;;
5263;SDS011;2654;47.958;13.614;2022-08-19T14:37:43;17.80;;;13.97;;
5263;SDS011;2654;47.958;13.614;2022-08-19T14:40:13;21.43;;;17.17;;
5263;SDS011;2654;47.958;13.614;2022-08-19T14:42:42;32.57;;;22.90;;
5263;SDS011;2654;47.958;13.614;2022-08-19T14:45:10;27.87;;;21.60;;
5263;SDS011;2654;47.958;13.614;2022-08-19T14:47:38;28.60;;;22.83;;
5263;SDS011;2654;47.958;13.614;2022-08-19T14:50:07;30.30;;;21.07;;